Decoded Metar for EPBY (BYDGOSZCZ in POLAND) (IATA:N/A) | Meteo·Mobile Aviation Weather
aviador You're here:

EPBY Decoded Metar

BYDGOSZCZ in POLAND
Report Time2019-09-17 00:30:00
UTC Time2019-09-17 01:03:47
Flight Rules vfr VFR
Wind260° at 11 kt
W.Decomp.*RWY 26: 11.0 kt HW 1 kt LCW
Visibility9999 m
Phenomena:N/A
Clouds:N/A
Expected CloudBase > 1,200 ft AGL from Temp-Dew spread
CeilingNone
Temp09°C (ISA -6)
Dew Point06°C (82% RH)
AAT4.1°C
QNH1012 hPa
Density Alt-269 ft
Elevation233 ft
Report Wrong Elevation
Raw Report
METAR EPBY 170030Z 26011KT CAVOK 09/06 Q1012 =

Extra information for EPBY:More info

Metar Taf Metar & Taf Last 4 Metars F.Rules Stats Wind Profile Meteogram Temp Stats Airport Information Weather charts Add Link Nearby VenuesMetar ALERT Operation Metar Decoded Social comments